Time;durP1;ratioP1;P1;durP2;ratioP2;P2;SDS_P1;SDS_P2;PMS_P1;PMS_P2;Temp;Humidity;BMP_temperature;BMP_pressure;BME280_temperature;BME280_humidity;BME280_pressure;Samples;Min_cycle;Max_cycle;Signal;HPM_P1;HPM_P2
2022/08/13 00:01:37;;;;;;;12.20;11.10;;;;;;;18.51;79.38;99787.44;447244;1272;186119;-61
2022/08/13 00:22:18;;;;;;;10.90;9.90;;;;;;;18.38;79.90;99763.70;447225;1272;143300;-61
2022/08/13 00:32:36;;;;;;;10.70;9.70;;;;;;;18.33;80.24;99743.23;446457;1272;142659;-61
2022/08/13 00:42:42;;;;;;;11.00;9.90;;;;;;;18.33;80.63;99721.49;447230;1272;142752;-61
2022/08/13 00:52:56;;;;;;;10.10;9.10;;;;;;;18.27;80.80;99721.15;446504;1272;145782;-61
2022/08/13 01:03:05;;;;;;;10.40;9.30;;;;;;;18.17;81.00;99719.36;447216;1272;145705;-61
2022/08/13 01:13:25;;;;;;;13.60;11.80;;;;;;;18.09;81.34;99718.35;447212;1271;142633;-61
2022/08/13 01:23:33;;;;;;;11.10;10.10;;;;;;;18.03;81.39;99702.11;446396;1272;145415;-63
2022/08/13 01:33:48;;;;;;;10.90;9.90;;;;;;;18.00;81.89;99677.04;447157;1273;142416;-62
2022/08/13 01:44:04;;;;;;;10.90;9.80;;;;;;;17.99;82.25;99648.14;446391;1272;143622;-62
2022/08/13 01:54:23;;;;;;;12.70;11.50;;;;;;;17.94;82.56;99648.67;447146;1272;143547;-61
2022/08/13 02:04:49;;;;;;;12.20;11.10;;;;;;;17.88;82.93;99656.75;446387;1272;143181;-62
2022/08/13 02:15:09;;;;;;;13.20;12.00;;;;;;;17.84;83.39;99675.00;447197;1271;141995;-61
2022/08/13 02:25:20;;;;;;;13.50;12.20;;;;;;;17.87;83.83;99662.63;447163;1273;144206;-62
2022/08/13 02:35:27;;;;;;;14.00;12.70;;;;;;;17.91;84.11;99669.37;446478;1272;142605;-61
2022/08/13 02:45:53;;;;;;;14.50;13.10;;;;;;;17.94;84.21;99671.89;447192;1273;142935;-61
2022/08/13 02:55:59;;;;;;;13.30;12.00;;;;;;;17.89;84.55;99674.30;446429;1273;143119;-61
2022/08/13 03:06:08;;;;;;;12.50;11.30;;;;;;;17.86;84.70;99665.23;447364;1272;142991;-62
2022/08/13 03:16:21;;;;;;;13.10;11.70;;;;;;;17.89;84.74;99663.04;447141;1271;142922;-61
2022/08/13 03:26:29;;;;;;;12.90;11.70;;;;;;;17.89;84.91;99655.02;446447;1272;143442;-61
2022/08/13 03:36:37;;;;;;;13.90;12.60;;;;;;;17.91;85.17;99664.91;446999;1272;142690;-62
2022/08/13 03:46:44;;;;;;;13.90;12.70;;;;;;;17.96;85.44;99662.01;445660;1272;143003;-62
2022/08/13 03:56:56;;;;;;;12.70;11.60;;;;;;;18.04;85.58;99657.69;438782;1272;142464;-61
2022/08/13 04:07:08;;;;;;;13.90;11.20;;;;;;;18.11;85.44;99656.93;447202;1272;142436;-62
2022/08/13 04:17:16;;;;;;;13.40;12.30;;;;;;;18.24;85.55;99665.99;446493;1270;142655;-61
2022/08/13 04:27:23;;;;;;;14.00;12.50;;;;;;;18.34;85.58;99673.02;447142;1272;143371;-62
2022/08/13 04:37:29;;;;;;;13.00;11.80;;;;;;;18.45;85.19;99661.48;447183;1272;142189;-62
2022/08/13 04:47:50;;;;;;;12.70;11.40;;;;;;;18.65;85.00;99647.73;447194;1272;142904;-61
2022/08/13 04:57:56;;;;;;;11.20;10.20;;;;;;;19.03;84.61;99645.58;447105;1271;142699;-62
2022/08/13 05:08:07;;;;;;;10.40;9.30;;;;;;;19.95;83.09;99645.34;446258;1272;145881;-62
2022/08/13 05:18:13;;;;;;;10.40;9.40;;;;;;;20.52;80.77;99648.83;447200;1271;142059;-62
2022/08/13 05:28:33;;;;;;;9.10;8.30;;;;;;;20.77;79.54;99648.24;447205;1270;142906;-62
2022/08/13 05:38:39;;;;;;;11.00;9.70;;;;;;;20.50;78.74;99662.52;446440;1272;142903;-62
2022/08/13 05:48:57;;;;;;;13.50;12.20;;;;;;;20.24;79.14;99656.14;447009;1272;142571;-61
2022/08/13 05:59:03;;;;;;;13.90;11.90;;;;;;;19.82;79.66;99651.96;446416;1272;143600;-62
2022/08/13 06:09:10;;;;;;;13.90;12.60;;;;;;;19.64;80.32;99652.20;447143;1272;144099;-62
2022/08/13 06:19:17;;;;;;;11.70;10.80;;;;;;;19.62;80.45;99650.69;447238;1271;141777;-62
2022/08/13 06:29:23;;;;;;;9.90;9.00;;;;;;;19.86;80.48;99653.55;446233;1272;142864;-62
2022/08/13 06:39:37;;;;;;;9.30;8.50;;;;;;;21.27;78.61;99649.92;445962;1272;141948;-62
2022/08/13 06:49:43;;;;;;;7.70;6.00;;;;;;;22.70;76.23;99642.04;446913;1271;144888;-63
2022/08/13 07:00:10;;;;;;;6.80;6.10;;;;;;;27.50;69.31;99637.88;447128;1272;211057;-62
2022/08/13 07:10:37;;;;;;;5.70;5.20;;;;;;;30.44;59.74;99632.83;447266;1271;142522;-62
2022/08/13 07:20:44;;;;;;;4.90;4.40;;;;;;;31.81;56.50;99637.53;447251;1271;141479;-63
2022/08/13 07:30:53;;;;;;;4.90;4.40;;;;;;;30.42;53.09;99643.79;447041;1270;141092;-61
2022/08/13 07:41:03;;;;;;;6.40;4.60;;;;;;;26.72;55.08;99664.19;446632;1272;141107;-61
2022/08/13 07:51:19;;;;;;;5.50;4.80;;;;;;;24.51;58.94;99671.77;447320;1271;141503;-62
2022/08/13 08:01:27;;;;;;;6.80;5.00;;;;;;;23.45;61.03;99674.15;447339;1272;142644;-62
2022/08/13 08:22:21;;;;;;;6.20;5.70;;;;;;;22.82;63.47;99684.29;447321;1271;141922;-62
2022/08/13 08:32:32;;;;;;;7.70;7.10;;;;;;;22.42;64.66;99708.52;446543;1271;141811;-62
2022/08/13 08:42:42;;;;;;;9.60;8.80;;;;;;;21.81;66.27;99710.08;447304;1272;141957;-63
2022/08/13 08:53:21;;;;;;;10.00;9.20;;;;;;;21.58;67.63;99694.52;446545;1272;142900;-62
2022/08/13 09:03:47;;;;;;;8.90;8.00;;;;;;;21.53;68.28;99685.44;447234;1272;143377;-61
2022/08/13 09:14:05;;;;;;;8.30;7.50;;;;;;;21.42;69.09;99666.67;446572;1272;142308;-61
2022/08/13 09:24:15;;;;;;;7.00;6.50;;;;;;;21.78;69.42;99637.62;447326;1272;182530;-62
2022/08/13 09:34:24;;;;;;;6.50;6.00;;;;;;;22.16;68.61;99600.02;447315;1272;142509;-62
2022/08/13 09:44:32;;;;;;;5.30;4.90;;;;;;;22.35;68.08;99582.52;446562;1272;142478;-62
2022/08/13 09:54:41;;;;;;;5.60;5.20;;;;;;;22.60;67.64;99574.41;447268;1272;142784;-61
2022/08/13 10:04:57;;;;;;;4.80;4.40;;;;;;;23.10;66.69;99566.09;446535;1272;141403;-61
2022/08/13 10:15:03;;;;;;;4.80;4.30;;;;;;;24.01;65.17;99562.91;446961;1272;142999;-63
2022/08/13 10:25:10;;;;;;;5.30;4.80;;;;;;;24.81;62.97;99552.24;447382;1272;142239;-62
2022/08/13 10:35:19;;;;;;;4.00;3.70;;;;;;;24.93;62.02;99515.97;446591;1270;145092;-62
2022/08/13 10:45:30;;;;;;;4.20;3.80;;;;;;;25.42;60.73;99540.69;447286;1272;143447;-61
2022/08/13 10:55:38;;;;;;;4.60;4.00;;;;;;;25.77;59.66;99559.36;447325;1271;141680;-62
2022/08/13 11:05:47;;;;;;;5.60;4.00;;;;;;;25.36;59.14;99573.90;447335;1271;142477;-62
2022/08/13 11:15:58;;;;;;;4.70;4.30;;;;;;;25.03;60.58;99563.84;447309;1271;142076;-62
2022/08/13 11:26:04;;;;;;;8.60;5.20;;;;;;;24.93;60.88;99568.63;446507;1272;143907;-62
2022/08/13 11:36:30;;;;;;;5.30;4.80;;;;;;;24.78;60.95;99565.14;447239;1272;142183;-62
2022/08/13 11:46:38;;;;;;;4.80;3.60;;;;;;;25.38;60.21;99561.04;446817;1274;143474;-63
2022/08/13 11:56:45;;;;;;;4.20;3.90;;;;;;;25.69;59.45;99568.05;447325;1272;143676;-62
2022/08/13 12:06:55;;;;;;;4.30;3.90;;;;;;;26.02;58.88;99557.77;447374;1272;141810;-64
2022/08/13 12:17:02;;;;;;;6.90;4.50;;;;;;;26.18;57.81;99555.06;446443;1271;142306;-63
2022/08/13 12:27:08;;;;;;;5.60;3.80;;;;;;;25.95;58.21;99552.95;447326;1272;141624;-62
2022/08/13 12:37:14;;;;;;;4.60;4.20;;;;;;;26.01;57.95;99551.98;447292;1272;142773;-62
2022/08/13 12:47:28;;;;;;;4.80;4.40;;;;;;;25.87;57.79;99553.64;446307;1272;142798;-62
2022/08/13 12:57:35;;;;;;;6.00;3.70;;;;;;;26.25;57.16;99557.10;447321;1272;143831;-62
2022/08/13 13:08:01;;;;;;;4.80;4.10;;;;;;;26.30;57.13;99554.80;446576;1272;142784;-61
2022/08/13 13:18:18;;;;;;;5.00;4.60;;;;;;;26.39;56.87;99552.50;447283;1271;141409;-62
2022/08/13 13:28:42;;;;;;;;;;;;;;;26.21;56.64;99561.61;446512;1272;141599;-62
2022/08/13 13:38:48;;;;;;;5.30;4.70;;;;;;;25.48;57.67;99545.70;447513;1272;128813;-63
2022/08/13 13:49:01;;;;;;;4.60;4.10;;;;;;;25.04;58.45;99533.95;447270;1272;143166;-63
2022/08/13 13:59:07;;;;;;;5.20;4.70;;;;;;;25.06;58.91;99537.09;446551;1272;141287;-62
2022/08/13 14:09:13;;;;;;;5.60;5.20;;;;;;;25.18;59.30;99550.17;447286;1273;143776;-62
2022/08/13 14:19:26;;;;;;;5.60;5.20;;;;;;;25.51;59.37;99528.81;447194;1271;142600;-62
2022/08/13 14:29:51;;;;;;;4.90;4.50;;;;;;;25.49;59.06;99517.73;447178;1272;142101;-61
2022/08/13 14:39:58;;;;;;;5.90;5.40;;;;;;;25.43;59.15;99507.71;447197;1272;143695;-61
2022/08/13 14:50:10;;;;;;;4.90;4.60;;;;;;;25.13;59.58;99499.20;446410;1272;141973;-61
2022/08/13 15:00:17;;;;;;;6.50;5.80;;;;;;;24.80;60.42;99486.92;447214;1272;142549;-62
2022/08/13 15:10:31;;;;;;;6.30;5.70;;;;;;;24.45;61.19;99491.03;447204;1271;142788;-63
2022/08/13 15:20:38;;;;;;;5.80;5.30;;;;;;;24.09;61.70;99489.34;446316;1272;142740;-62
2022/08/13 15:31:04;;;;;;;7.20;5.90;;;;;;;23.84;62.05;99478.15;447173;1273;142824;-62
2022/08/13 15:41:19;;;;;;;5.50;5.00;;;;;;;23.56;62.67;99476.06;446416;1272;141981;-62
2022/08/13 15:51:26;;;;;;;5.50;5.00;;;;;;;23.44;63.19;99475.34;447113;1272;144319;-62
2022/08/13 16:01:37;;;;;;;6.00;5.50;;;;;;;23.46;63.20;99478.05;447176;1272;144667;-62
2022/08/13 16:11:48;;;;;;;5.50;5.10;;;;;;;23.65;63.27;99462.95;447161;1272;144691;-63
2022/08/13 16:21:54;;;;;;;5.90;5.20;;;;;;;23.71;62.95;99453.58;447082;1272;142095;-63
2022/08/13 16:32:01;;;;;;;5.70;5.20;;;;;;;23.62;63.16;99440.13;446461;1272;145011;-65
2022/08/13 16:42:10;;;;;;;5.60;4.70;;;;;;;23.69;63.15;99450.05;447217;1272;143050;-61
2022/08/13 16:52:16;;;;;;;5.70;4.70;;;;;;;23.63;63.04;99443.98;447074;1272;141965;-63
2022/08/13 17:09:10;;;;;;;7.50;6.00;;;;;;;23.66;63.25;99429.28;446468;1272;142563;-63
2022/08/13 17:12:59;;;;;;;5.80;5.30;;;;;;;23.68;63.29;99421.14;447168;1271;141003;-62
2022/08/13 17:23:05;;;;;;;7.00;5.80;;;;;;;23.51;63.58;99416.61;446406;1272;142033;-62
2022/08/13 17:33:14;;;;;;;6.10;5.60;;;;;;;23.30;63.98;99411.30;446990;1273;141454;-63
2022/08/13 17:43:40;;;;;;;6.40;5.80;;;;;;;23.04;64.66;99420.95;447151;1272;143539;-61
2022/08/13 17:54:06;;;;;;;7.10;5.80;;;;;;;22.83;65.38;99415.00;447046;1272;141717;-63
2022/08/13 18:04:24;;;;;;;10.00;6.40;;;;;;;22.60;65.98;99405.80;447115;1272;142528;-63
2022/08/13 18:14:37;;;;;;;13.30;7.70;;;;;;;22.33;66.33;99423.36;446324;1271;141914;-62
2022/08/13 18:24:54;;;;;;;6.30;5.80;;;;;;;22.12;66.98;99442.45;447129;1273;143859;-63
2022/08/13 18:35:00;;;;;;;19.80;10.50;;;;;;;21.93;67.59;99451.48;445382;1273;1283902;-63
2022/08/13 18:45:10;;;;;;;15.30;10.00;;;;;;;21.74;68.22;99451.27;447159;1272;187036;-61
2022/08/13 18:55:36;;;;;;;7.20;6.60;;;;;;;21.72;68.89;99476.63;447133;1272;143056;-62
2022/08/13 19:06:00;;;;;;;8.10;7.20;;;;;;;21.60;69.44;99462.45;447196;1272;142448;-61
2022/08/13 19:16:08;;;;;;;14.70;7.30;;;;;;;21.49;69.88;99453.65;447184;1271;142652;-61
2022/08/13 19:26:20;;;;;;;8.40;7.60;;;;;;;21.35;70.65;99464.11;446428;1272;143665;-63
2022/08/13 19:36:26;;;;;;;7.60;7.00;;;;;;;21.02;70.76;99465.30;447405;1271;141834;-62
2022/08/13 19:46:39;;;;;;;8.10;7.30;;;;;;;20.73;71.39;99464.28;447389;1271;142175;-62
2022/08/13 19:56:54;;;;;;;7.90;7.20;;;;;;;20.54;71.93;99461.38;447397;1271;142851;-62
2022/08/13 20:07:04;;;;;;;7.60;6.70;;;;;;;20.48;71.87;99454.36;447397;1271;141993;-62
2022/08/13 20:17:11;;;;;;;7.20;6.60;;;;;;;20.40;71.66;99446.77;446205;1273;145602;-62
2022/08/13 20:27:20;;;;;;;7.60;6.90;;;;;;;20.36;72.01;99436.23;447425;1271;142527;-63
2022/08/13 20:37:49;;;;;;;7.70;7.00;;;;;;;20.28;72.46;99428.73;446829;1270;162913;-62
2022/08/13 20:47:57;;;;;;;13.10;11.90;;;;;;;20.19;72.91;99420.06;447378;1271;142471;-63
2022/08/13 20:58:09;;;;;;;15.40;8.10;;;;;;;20.09;73.68;99415.29;447390;1271;145384;-62
2022/08/13 21:08:35;;;;;;;12.20;7.10;;;;;;;19.99;74.10;99407.64;446680;1269;142453;-62
2022/08/13 21:18:41;;;;;;;9.50;7.10;;;;;;;19.94;73.65;99396.23;447453;1271;142324;-61
2022/08/13 21:28:49;;;;;;;9.90;8.80;;;;;;;19.95;73.14;99403.94;446814;1271;141850;-61
2022/08/13 21:39:15;;;;;;;10.10;7.40;;;;;;;19.95;73.35;99391.17;447470;1271;143767;-62
2022/08/13 21:49:20;;;;;;;13.50;9.10;;;;;;;19.87;72.98;99372.60;447220;1272;142340;-62
2022/08/13 21:59:47;;;;;;;7.90;7.10;;;;;;;19.85;72.46;99370.49;447424;1271;142566;-62
2022/08/13 22:09:53;;;;;;;6.40;5.90;;;;;;;19.80;72.15;99344.78;447423;1270;143200;-62
2022/08/13 22:20:01;;;;;;;9.90;6.50;;;;;;;19.74;72.24;99338.33;446720;1270;143115;-61
2022/08/13 22:40:38;;;;;;;7.70;7.00;;;;;;;19.44;72.42;99342.55;447465;1271;142294;-62
2022/08/13 22:50:46;;;;;;;8.50;6.80;;;;;;;19.29;72.83;99351.05;447449;1271;142645;-62
2022/08/13 23:00:52;;;;;;;9.40;6.10;;;;;;;19.24;72.68;99351.36;447479;1270;142768;-62
2022/08/13 23:10:58;;;;;;;6.00;5.30;;;;;;;19.27;72.32;99333.67;446528;1271;142836;-63
2022/08/13 23:21:04;;;;;;;6.50;5.90;;;;;;;19.39;71.69;99321.57;447408;1271;143788;-63
2022/08/13 23:31:11;;;;;;;8.00;6.10;;;;;;;19.46;71.18;99310.17;447235;1271;142156;-63
2022/08/13 23:41:17;;;;;;;7.00;6.40;;;;;;;19.51;71.10;99302.36;446655;1271;144075;-63
2022/08/13 23:51:24;;;;;;;5.60;5.10;;;;;;;19.53;70.83;99297.41;447425;1271;142572;-61
